createdAt,value
2023-04-13T00:00:28.819Z,0.00
2023-04-13T00:01:28.802Z,0.00
2023-04-13T00:02:28.951Z,0.00
2023-04-13T00:03:29.017Z,0.00
2023-04-13T00:04:28.778Z,0.00
2023-04-13T00:05:28.790Z,0.00
2023-04-13T00:06:28.763Z,0.00
2023-04-13T00:07:28.747Z,0.00
2023-04-13T00:08:28.729Z,0.00
2023-04-13T00:09:28.728Z,0.00
2023-04-13T00:10:28.709Z,0.00
2023-04-13T00:11:28.717Z,0.00
2023-04-13T00:12:28.715Z,0.00
2023-04-13T00:13:28.676Z,0.00
2023-04-13T00:14:28.668Z,0.00
2023-04-13T00:15:28.665Z,0.00
2023-04-13T00:16:28.693Z,0.00
2023-04-13T00:17:28.661Z,0.00
2023-04-13T00:18:28.624Z,0.00
2023-04-13T00:19:28.613Z,0.00
2023-04-13T00:20:28.608Z,0.00
2023-04-13T00:21:28.594Z,0.00
2023-04-13T00:22:28.576Z,0.00
2023-04-13T00:23:28.581Z,0.00
2023-04-13T00:24:28.556Z,0.00
2023-04-13T00:25:28.541Z,0.00
2023-04-13T00:26:28.547Z,0.00
2023-04-13T00:27:28.529Z,0.00
2023-04-13T00:28:28.549Z,0.00
2023-04-13T00:29:28.519Z,0.00
2023-04-13T00:30:28.497Z,0.00
2023-04-13T00:31:28.549Z,0.00
2023-04-13T00:32:28.471Z,0.00
2023-04-13T00:33:28.461Z,0.00
2023-04-13T00:34:28.448Z,0.00
2023-04-13T00:35:28.466Z,0.00
2023-04-13T00:36:28.428Z,0.00
2023-04-13T00:37:28.429Z,0.00
2023-04-13T00:38:28.411Z,0.00
2023-04-13T00:39:28.392Z,0.00
2023-04-13T00:40:28.383Z,0.00
2023-04-13T00:41:28.405Z,0.00
2023-04-13T00:42:28.368Z,0.00
2023-04-13T00:43:28.349Z,0.00
2023-04-13T00:44:28.382Z,0.00
2023-04-13T00:45:28.358Z,0.00
2023-04-13T00:46:28.387Z,0.00
2023-04-13T00:47:28.385Z,0.00
2023-04-13T00:48:28.300Z,0.00
2023-04-13T00:49:28.285Z,0.00
2023-04-13T00:50:28.308Z,0.00
2023-04-13T00:51:28.270Z,0.00
2023-04-13T00:52:28.256Z,0.00
2023-04-13T00:53:28.276Z,0.00
2023-04-13T00:54:28.245Z,0.00
2023-04-13T00:55:28.223Z,0.00
2023-04-13T00:56:28.228Z,0.00
2023-04-13T00:57:28.204Z,0.00
2023-04-13T00:58:28.194Z,0.00
2023-04-13T00:59:28.204Z,0.00
2023-04-13T01:00:28.294Z,0.00
2023-04-13T01:01:28.184Z,0.00
2023-04-13T01:02:28.218Z,0.00
2023-04-13T01:03:28.156Z,0.00
2023-04-13T01:04:28.198Z,0.00
2023-04-13T01:05:28.153Z,0.00
2023-04-13T01:06:28.136Z,0.00
2023-04-13T01:07:28.093Z,0.00
2023-04-13T01:08:28.091Z,0.00
2023-04-13T01:09:28.083Z,0.00
2023-04-13T01:10:28.072Z,0.00
2023-04-13T01:11:28.085Z,0.00
2023-04-13T01:12:28.053Z,0.00
2023-04-13T01:13:28.042Z,0.00
2023-04-13T01:14:28.022Z,0.00
2023-04-13T01:15:28.009Z,0.00
2023-04-13T01:16:28.182Z,0.00
2023-04-13T01:17:28.034Z,0.00
2023-04-13T01:18:27.990Z,0.00
2023-04-13T01:19:27.966Z,0.00
2023-04-13T01:20:27.957Z,0.00
2023-04-13T01:21:27.946Z,0.00
2023-04-13T01:22:27.938Z,0.00
2023-04-13T01:23:27.963Z,0.00
2023-04-13T01:24:27.918Z,0.00
2023-04-13T01:25:27.905Z,0.00
2023-04-13T01:26:27.893Z,0.00
2023-04-13T01:27:27.885Z,0.00
2023-04-13T01:28:27.884Z,0.00
2023-04-13T01:29:27.920Z,0.00
2023-04-13T01:30:27.850Z,0.00
2023-04-13T01:31:27.861Z,0.00
2023-04-13T01:32:27.888Z,0.00
2023-04-13T01:33:27.815Z,0.00
2023-04-13T01:34:27.809Z,0.00
2023-04-13T01:35:27.842Z,0.00
2023-04-13T01:36:27.786Z,0.00
2023-04-13T01:37:27.777Z,0.00
2023-04-13T01:38:27.780Z,0.00
2023-04-13T01:39:27.754Z,0.00
2023-04-13T01:40:27.750Z,0.00
2023-04-13T01:41:27.751Z,0.00
2023-04-13T01:42:27.736Z,0.00
2023-04-13T01:43:27.715Z,0.00
2023-04-13T01:44:27.703Z,0.00
2023-04-13T01:45:27.710Z,0.00
2023-04-13T01:46:27.722Z,0.00
2023-04-13T01:47:27.761Z,0.00
2023-04-13T01:48:27.681Z,0.00
2023-04-13T01:49:27.647Z,0.00
2023-04-13T01:50:27.637Z,0.00
2023-04-13T01:51:27.634Z,0.00
2023-04-13T01:52:27.617Z,0.00
2023-04-13T01:53:27.631Z,0.00
2023-04-13T01:54:27.600Z,0.00
2023-04-13T01:55:27.581Z,0.00
2023-04-13T01:56:27.578Z,0.00
2023-04-13T01:57:27.570Z,0.00
2023-04-13T01:58:27.556Z,0.00
2023-04-13T01:59:27.564Z,0.00
2023-04-13T02:00:27.545Z,0.00
2023-04-13T02:01:27.534Z,0.00
2023-04-13T02:02:27.625Z,0.00
2023-04-13T02:03:27.614Z,0.00
2023-04-13T02:04:27.523Z,0.00
2023-04-13T02:05:27.493Z,0.00
2023-04-13T02:06:27.470Z,0.00
2023-04-13T02:07:27.455Z,0.00
2023-04-13T02:08:27.460Z,0.00
2023-04-13T02:09:27.434Z,0.00
2023-04-13T02:10:27.428Z,0.00
2023-04-13T02:11:27.445Z,0.00
2023-04-13T02:12:27.407Z,0.00
2023-04-13T02:13:27.411Z,0.00
2023-04-13T02:14:27.389Z,0.00
2023-04-13T02:15:27.368Z,0.00
2023-04-13T02:16:27.394Z,0.00
2023-04-13T02:17:27.437Z,0.00
2023-04-13T02:18:27.348Z,0.00
2023-04-13T02:19:27.338Z,0.00
2023-04-13T02:20:27.337Z,0.00
2023-04-13T02:21:27.312Z,0.00
2023-04-13T02:22:27.315Z,0.00
2023-04-13T02:23:27.315Z,0.00
2023-04-13T02:24:27.279Z,0.00
2023-04-13T02:25:27.264Z,0.00
2023-04-13T02:26:27.262Z,0.00
2023-04-13T02:27:27.242Z,0.00
2023-04-13T02:28:27.243Z,0.00
2023-04-13T02:29:27.254Z,0.00
2023-04-13T02:30:27.212Z,0.00
2023-04-13T02:31:27.237Z,0.00
2023-04-13T02:32:27.228Z,0.00
2023-04-13T02:33:27.178Z,0.00
2023-04-13T02:34:27.180Z,0.00
2023-04-13T02:35:27.179Z,0.00
2023-04-13T02:36:27.172Z,0.00
2023-04-13T02:37:27.135Z,0.00
2023-04-13T02:38:27.128Z,0.00
2023-04-13T02:39:27.124Z,0.00
2023-04-13T02:40:27.122Z,0.00
2023-04-13T02:41:27.124Z,0.00
2023-04-13T02:42:27.086Z,0.00
2023-04-13T02:43:27.081Z,0.00
2023-04-13T02:44:27.063Z,0.00
2023-04-13T02:45:27.112Z,0.00
2023-04-13T02:46:27.069Z,0.00
2023-04-13T02:47:27.087Z,0.00
2023-04-13T02:48:27.024Z,0.00
2023-04-13T02:49:27.013Z,0.00
2023-04-13T02:50:27.000Z,0.00
2023-04-13T02:51:26.986Z,0.00
2023-04-13T02:52:27.013Z,0.00
2023-04-13T02:53:26.981Z,0.00
2023-04-13T02:54:26.955Z,0.00
2023-04-13T02:55:26.952Z,0.00
2023-04-13T02:56:26.932Z,0.00
2023-04-13T02:57:26.937Z,0.00
2023-04-13T02:58:26.912Z,0.00
2023-04-13T02:59:26.930Z,0.00
2023-04-13T03:00:26.900Z,0.00
2023-04-13T03:01:26.989Z,0.00
2023-04-13T03:02:26.940Z,0.00
2023-04-13T03:03:26.911Z,0.00
2023-04-13T03:04:26.866Z,0.00
2023-04-13T03:05:26.857Z,0.00
2023-04-13T03:06:26.842Z,0.00
2023-04-13T03:07:26.845Z,0.00
2023-04-13T03:08:26.822Z,0.00
2023-04-13T03:09:26.788Z,0.00
2023-04-13T03:10:26.788Z,0.00
2023-04-13T03:11:26.820Z,0.00
2023-04-13T03:12:26.767Z,0.00
2023-04-13T03:13:26.746Z,0.00
2023-04-13T03:14:26.744Z,0.00
2023-04-13T03:15:26.732Z,0.00
2023-04-13T03:16:26.727Z,0.00
2023-04-13T03:17:26.740Z,0.00
2023-04-13T03:18:26.697Z,0.00
2023-04-13T03:19:26.690Z,0.00
2023-04-13T03:20:26.674Z,0.00
2023-04-13T03:21:26.666Z,0.00
2023-04-13T03:22:26.658Z,0.00
2023-04-13T03:23:26.671Z,0.00
2023-04-13T03:24:26.654Z,0.00
2023-04-13T03:25:26.634Z,0.00
2023-04-13T03:26:26.626Z,0.00
2023-04-13T03:27:26.610Z,0.00
2023-04-13T03:28:26.631Z,0.00
2023-04-13T03:29:26.613Z,0.00
2023-04-13T03:30:26.603Z,0.00
2023-04-13T03:31:26.628Z,0.00
2023-04-13T03:32:26.630Z,0.00
2023-04-13T03:33:26.534Z,0.00
2023-04-13T03:34:26.528Z,0.00
2023-04-13T03:35:26.553Z,0.00
2023-04-13T03:36:26.505Z,0.00
2023-04-13T03:37:26.503Z,0.00
2023-04-13T03:38:26.486Z,0.00
2023-04-13T03:39:26.475Z,0.00
2023-04-13T03:40:26.486Z,0.00
2023-04-13T03:41:26.491Z,0.00
2023-04-13T03:42:26.441Z,0.00
2023-04-13T03:43:26.441Z,0.00
2023-04-13T03:44:26.424Z,0.00
2023-04-13T03:45:26.410Z,0.00
2023-04-13T03:46:26.444Z,0.00
2023-04-13T03:47:26.424Z,0.00
2023-04-13T03:48:26.428Z,0.00
2023-04-13T03:49:26.365Z,0.00
2023-04-13T03:50:26.358Z,0.00
2023-04-13T03:51:26.353Z,0.00
2023-04-13T03:52:26.337Z,0.00
2023-04-13T03:53:26.354Z,0.00
2023-04-13T03:54:26.333Z,0.00
2023-04-13T03:55:26.302Z,0.00
2023-04-13T03:56:26.313Z,0.00
2023-04-13T03:57:26.285Z,0.00
2023-04-13T03:58:26.272Z,0.00
2023-04-13T03:59:26.291Z,0.00
2023-04-13T04:00:26.266Z,0.00
2023-04-13T04:01:26.234Z,0.00
2023-04-13T04:02:26.352Z,0.00
2023-04-13T04:03:26.284Z,0.00
2023-04-13T04:04:26.294Z,0.00
2023-04-13T04:05:26.244Z,0.00
2023-04-13T04:06:26.184Z,0.00
2023-04-13T04:07:26.180Z,0.00
2023-04-13T04:08:26.163Z,0.00
2023-04-13T04:09:26.155Z,0.00
2023-04-13T04:10:26.151Z,0.00
2023-04-13T04:11:26.169Z,0.00
2023-04-13T04:12:26.134Z,0.00
2023-04-13T04:13:26.108Z,0.00
2023-04-13T04:14:26.137Z,0.00
2023-04-13T04:15:26.104Z,4.00
2023-04-13T04:16:26.112Z,4.00
2023-04-13T04:17:26.208Z,4.00
2023-04-13T04:18:26.057Z,4.00
2023-04-13T04:19:26.042Z,4.00
2023-04-13T04:20:26.031Z,8.00
2023-04-13T04:21:26.022Z,8.00
2023-04-13T04:22:26.061Z,8.00
2023-04-13T04:23:26.001Z,8.00
2023-04-13T04:24:26.007Z,12.00
2023-04-13T04:25:25.979Z,12.00
2023-04-13T04:26:26.084Z,16.00
2023-04-13T04:27:25.960Z,20.00
2023-04-13T04:28:25.979Z,24.00
2023-04-13T04:29:25.936Z,28.00
2023-04-13T04:30:25.934Z,32.00
2023-04-13T04:31:25.945Z,36.00
2023-04-13T04:32:25.938Z,40.00
2023-04-13T04:33:25.909Z,48.00
2023-04-13T04:34:25.897Z,52.00
2023-04-13T04:35:25.885Z,60.00
2023-04-13T04:36:25.874Z,68.00
2023-04-13T04:37:25.889Z,76.00
2023-04-13T04:38:25.842Z,84.00
2023-04-13T04:39:25.829Z,92.00
2023-04-13T04:40:25.873Z,104.00
2023-04-13T04:41:25.808Z,116.00
2023-04-13T04:42:25.823Z,128.00
2023-04-13T04:43:25.790Z,136.00
2023-04-13T04:44:25.796Z,144.00
2023-04-13T04:45:25.787Z,156.00
2023-04-13T04:46:25.986Z,164.00
2023-04-13T04:47:25.794Z,172.00
2023-04-13T04:48:25.755Z,184.00
2023-04-13T04:49:25.731Z,196.00
2023-04-13T04:50:25.706Z,204.00
2023-04-13T04:51:25.700Z,212.00
2023-04-13T04:52:25.707Z,224.00
2023-04-13T04:53:25.678Z,228.00
2023-04-13T04:54:25.697Z,236.00
2023-04-13T04:55:25.657Z,244.00
2023-04-13T04:56:25.642Z,256.00
2023-04-13T04:57:26.567Z,264.00
2023-04-13T04:58:25.640Z,272.00
2023-04-13T04:59:25.622Z,280.00
2023-04-13T05:00:25.631Z,292.00
2023-04-13T05:01:25.635Z,300.00
2023-04-13T05:02:25.699Z,312.00
2023-04-13T05:03:25.615Z,320.00
2023-04-13T05:04:25.594Z,328.00
2023-04-13T05:05:25.612Z,340.00
2023-04-13T05:06:25.548Z,360.00
2023-04-13T05:07:25.531Z,376.00
2023-04-13T05:08:25.516Z,400.00
2023-04-13T05:09:25.509Z,412.00
2023-04-13T05:10:25.518Z,428.00
2023-04-13T05:11:25.498Z,444.00
2023-04-13T05:12:25.490Z,472.00
2023-04-13T05:13:25.465Z,496.00
2023-04-13T05:14:25.468Z,528.00
2023-04-13T05:15:25.453Z,544.00
2023-04-13T05:16:25.503Z,556.00
2023-04-13T05:17:25.456Z,580.00
2023-04-13T05:18:25.423Z,612.00
2023-04-13T05:19:25.405Z,660.00
2023-04-13T05:20:25.396Z,740.00
2023-04-13T05:21:25.384Z,828.00
2023-04-13T05:22:25.400Z,964.00
2023-04-13T05:23:25.359Z,1108.00
2023-04-13T05:24:25.371Z,1232.00
2023-04-13T05:25:25.340Z,1360.00
2023-04-13T05:26:25.481Z,1508.00
2023-04-13T05:27:25.316Z,1656.00
2023-04-13T05:28:25.336Z,1776.00
2023-04-13T05:29:25.311Z,1868.00
2023-04-13T05:30:25.295Z,1928.00
2023-04-13T05:31:25.345Z,2000.00
2023-04-13T05:32:25.318Z,2076.00
2023-04-13T05:33:25.264Z,2188.00
2023-04-13T05:34:25.269Z,2312.00
2023-04-13T05:35:25.237Z,2436.00
2023-04-13T05:36:25.248Z,2512.00
2023-04-13T05:37:25.214Z,2548.00
2023-04-13T05:38:25.194Z,2556.00
2023-04-13T05:39:25.187Z,2540.00
2023-04-13T05:40:25.202Z,2464.00
2023-04-13T05:41:25.166Z,2352.00
2023-04-13T05:42:25.191Z,2256.00
2023-04-13T05:43:25.169Z,2212.00
2023-04-13T05:44:25.140Z,2220.00
2023-04-13T05:45:25.128Z,2232.00
2023-04-13T05:46:25.236Z,2216.00
2023-04-13T05:47:25.121Z,2196.00
2023-04-13T05:48:25.116Z,2248.00
2023-04-13T05:49:25.077Z,2304.00
2023-04-13T05:50:25.065Z,2380.00
2023-04-13T05:51:25.056Z,2416.00
2023-04-13T05:52:25.068Z,2452.00
2023-04-13T05:53:25.044Z,2488.00
2023-04-13T05:54:25.019Z,2484.00
2023-04-13T05:55:25.012Z,2512.00
2023-04-13T05:56:24.998Z,2584.00
2023-04-13T05:57:24.998Z,2708.00
2023-04-13T05:58:25.033Z,2780.00
2023-04-13T05:59:24.972Z,2812.00
2023-04-13T06:00:24.955Z,2852.00
2023-04-13T06:01:24.947Z,2916.00
2023-04-13T06:02:25.038Z,2992.00
2023-04-13T06:03:25.104Z,3072.00
2023-04-13T06:04:25.200Z,3180.00
2023-04-13T06:05:25.135Z,3336.00
2023-04-13T06:06:24.899Z,3524.00
2023-04-13T06:07:24.885Z,3724.00
2023-04-13T06:08:24.870Z,3996.00
2023-04-13T06:09:24.870Z,4384.00
2023-04-13T06:10:24.904Z,4856.00
2023-04-13T06:11:24.844Z,5360.00
2023-04-13T06:12:24.834Z,5752.00
2023-04-13T06:13:24.819Z,6044.00
2023-04-13T06:14:24.825Z,6064.00
2023-04-13T06:15:24.797Z,5912.00
2023-04-13T06:16:24.880Z,5804.00
2023-04-13T06:17:24.855Z,5768.00
2023-04-13T06:18:24.767Z,5796.00
2023-04-13T06:19:26.314Z,5836.00
2023-04-13T06:20:24.756Z,5840.00
2023-04-13T06:21:24.735Z,5804.00
2023-04-13T06:22:24.750Z,5724.00
2023-04-13T06:23:24.726Z,5540.00
2023-04-13T06:24:24.705Z,5384.00
2023-04-13T06:25:24.693Z,5272.00
2023-04-13T06:26:24.680Z,5264.00
2023-04-13T06:27:24.674Z,5280.00
2023-04-13T06:28:24.699Z,5264.00
2023-04-13T06:29:24.668Z,5228.00
2023-04-13T06:30:24.641Z,5184.00
2023-04-13T06:31:24.661Z,5108.00
2023-04-13T06:32:24.629Z,5256.00
2023-04-13T06:33:24.623Z,5484.00
2023-04-13T06:34:24.645Z,5616.00
2023-04-13T06:35:24.590Z,5656.00
2023-04-13T06:36:24.599Z,5508.00
2023-04-13T06:37:24.568Z,5272.00
2023-04-13T06:38:24.553Z,5024.00
2023-04-13T06:39:26.012Z,4888.00
2023-04-13T06:40:24.583Z,4840.00
2023-04-13T06:41:24.525Z,4936.00
2023-04-13T06:42:24.513Z,5128.00
2023-04-13T06:43:29.502Z,5172.00
2023-04-13T06:44:25.489Z,5052.00
2023-04-13T06:45:24.484Z,4892.00
2023-04-13T06:46:24.551Z,4856.00
2023-04-13T06:47:24.492Z,4828.00
2023-04-13T06:48:24.446Z,4696.00
2023-04-13T06:49:24.453Z,4608.00
2023-04-13T06:50:24.426Z,4540.00
2023-04-13T06:51:24.430Z,4512.00
2023-04-13T06:52:24.446Z,4436.00
2023-04-13T06:53:24.403Z,4576.00
2023-04-13T06:54:24.384Z,5048.00
2023-04-13T06:55:24.388Z,5648.00
2023-04-13T06:56:24.372Z,6124.00
2023-04-13T06:57:24.354Z,6724.00
2023-04-13T06:58:24.377Z,7164.00
2023-04-13T06:59:24.329Z,7272.00
2023-04-13T07:00:30.171Z,7484.00
2023-04-13T07:01:25.397Z,7852.00
2023-04-13T07:02:24.443Z,8344.00
2023-04-13T07:03:24.454Z,8828.00
2023-04-13T07:04:27.441Z,9000.00
2023-04-13T07:05:24.277Z,8900.00
2023-04-13T07:06:24.251Z,8840.00
2023-04-13T07:07:24.261Z,9004.00
2023-04-13T07:08:24.259Z,9480.00
2023-04-13T07:09:24.233Z,9948.00
2023-04-13T07:10:24.237Z,10532.00
2023-04-13T07:11:24.202Z,11052.00
2023-04-13T07:12:24.197Z,11744.00
2023-04-13T07:13:24.181Z,12448.00
2023-04-13T07:14:24.174Z,12572.00
2023-04-13T07:15:24.156Z,12952.00
2023-04-13T07:16:24.257Z,13176.00
2023-04-13T07:17:24.211Z,13496.00
2023-04-13T07:18:24.125Z,13980.00
2023-04-13T07:19:24.112Z,14208.00
2023-04-13T07:20:24.097Z,13972.00
2023-04-13T07:21:24.092Z,15204.00
2023-04-13T07:22:24.105Z,15076.00
2023-04-13T07:23:24.076Z,14560.00
2023-04-13T07:24:24.092Z,14700.00
2023-04-13T07:25:24.054Z,15612.00
2023-04-13T07:26:24.038Z,15424.00
2023-04-13T07:27:24.029Z,15212.00
2023-04-13T07:28:24.064Z,15256.00
2023-04-13T07:29:24.017Z,18208.00
2023-04-13T07:30:23.996Z,16672.00
2023-04-13T07:31:24.039Z,21440.00
2023-04-13T07:32:28.082Z,20960.00
2023-04-13T07:33:24.978Z,18272.00
2023-04-13T07:34:23.984Z,18432.00
2023-04-13T07:35:23.949Z,14608.00
2023-04-13T07:36:23.935Z,14668.00
2023-04-13T07:37:23.922Z,16416.00
2023-04-13T07:38:23.908Z,18784.00
2023-04-13T07:39:23.906Z,22432.00
2023-04-13T07:40:23.915Z,20992.00
2023-04-13T07:41:23.901Z,20352.00
2023-04-13T07:42:23.861Z,18272.00
2023-04-13T07:43:23.854Z,16672.00
2023-04-13T07:44:23.843Z,15764.00
2023-04-13T07:45:23.832Z,15560.00
2023-04-13T07:46:23.900Z,15432.00
2023-04-13T07:47:23.855Z,15816.00
2023-04-13T07:48:23.801Z,15476.00
2023-04-13T07:49:23.790Z,14640.00
2023-04-13T07:50:23.825Z,14140.00
2023-04-13T07:51:23.777Z,13848.00
2023-04-13T07:52:23.786Z,13864.00
2023-04-13T07:53:23.787Z,13712.00
2023-04-13T07:54:23.735Z,13980.00
2023-04-13T07:55:23.728Z,14356.00
2023-04-13T07:56:23.744Z,14724.00
2023-04-13T07:57:23.707Z,14980.00
2023-04-13T07:58:23.723Z,15244.00
2023-04-13T07:59:25.276Z,15468.00
2023-04-13T08:00:23.673Z,15764.00
2023-04-13T08:01:23.670Z,15908.00
2023-04-13T08:02:23.715Z,16228.00
2023-04-13T08:03:23.784Z,16640.00
2023-04-13T08:04:23.922Z,17056.00
2023-04-13T08:05:23.801Z,17728.00
2023-04-13T08:06:23.615Z,18528.00
2023-04-13T08:07:23.596Z,19584.00
2023-04-13T08:08:23.584Z,19200.00
2023-04-13T08:09:23.576Z,18976.00
2023-04-13T08:10:23.644Z,18784.00
2023-04-13T08:11:23.556Z,19008.00
2023-04-13T08:12:23.579Z,20096.00
2023-04-13T08:13:23.536Z,20896.00
2023-04-13T08:14:23.522Z,21152.00
2023-04-13T08:15:23.527Z,21472.00
2023-04-13T08:16:23.563Z,21600.00
2023-04-13T08:17:23.516Z,21888.00
2023-04-13T08:18:23.491Z,22656.00
2023-04-13T08:19:23.470Z,24160.00
2023-04-13T08:20:23.475Z,24608.00
2023-04-13T08:21:23.459Z,25824.00
2023-04-13T08:22:23.464Z,28384.00
2023-04-13T08:23:23.437Z,25024.00
2023-04-13T08:24:23.427Z,26400.00
2023-04-13T08:25:23.414Z,26976.00
2023-04-13T08:26:23.402Z,27520.00
2023-04-13T08:27:23.389Z,27488.00
2023-04-13T08:28:23.681Z,26208.00
2023-04-13T08:29:23.368Z,27584.00
2023-04-13T08:30:23.354Z,31360.00
2023-04-13T08:31:23.364Z,32832.00
2023-04-13T08:32:23.360Z,32640.00
2023-04-13T08:33:23.328Z,32832.00
2023-04-13T08:34:23.351Z,29728.00
2023-04-13T08:35:23.307Z,25952.00
2023-04-13T08:36:23.291Z,25888.00
2023-04-13T08:37:23.286Z,28736.00
2023-04-13T08:38:23.283Z,30944.00
2023-04-13T08:39:23.273Z,29088.00
2023-04-13T08:40:23.284Z,28096.00
2023-04-13T08:41:23.241Z,25280.00
2023-04-13T08:42:23.694Z,26080.00
2023-04-13T08:43:23.234Z,26784.00
2023-04-13T08:44:23.234Z,28608.00
2023-04-13T08:45:23.199Z,27584.00
2023-04-13T08:46:23.377Z,27264.00
2023-04-13T08:47:23.178Z,27200.00
2023-04-13T08:48:23.185Z,26176.00
2023-04-13T08:49:23.164Z,28320.00
2023-04-13T08:50:23.263Z,29088.00
2023-04-13T08:51:23.138Z,27520.00
2023-04-13T08:52:23.142Z,25024.00
2023-04-13T08:53:23.109Z,23168.00
2023-04-13T08:54:23.105Z,22080.00
2023-04-13T08:55:23.090Z,22016.00
2023-04-13T08:56:30.933Z,22208.00
2023-04-13T08:57:24.119Z,21952.00
2023-04-13T08:58:23.119Z,22176.00
2023-04-13T08:59:23.049Z,21824.00
2023-04-13T09:00:23.074Z,21184.00
2023-04-13T09:01:23.054Z,20896.00
2023-04-13T09:02:23.185Z,20736.00
2023-04-13T09:03:23.171Z,20768.00
2023-04-13T09:04:23.051Z,20768.00
2023-04-13T09:05:23.161Z,20704.00
2023-04-13T09:06:22.982Z,19904.00
2023-04-13T09:07:22.960Z,19104.00
2023-04-13T09:08:22.951Z,18656.00
2023-04-13T09:09:22.964Z,18208.00
2023-04-13T09:10:22.924Z,17568.00
2023-04-13T09:11:22.929Z,16856.00
2023-04-13T09:12:22.903Z,16076.00
2023-04-13T09:13:22.899Z,15440.00
2023-04-13T09:14:22.884Z,15188.00
2023-04-13T09:15:22.898Z,14972.00
2023-04-13T09:16:22.912Z,14996.00
2023-04-13T09:17:22.981Z,15272.00
2023-04-13T09:18:22.841Z,15304.00
2023-04-13T09:19:22.844Z,15436.00
2023-04-13T09:20:22.852Z,15516.00
2023-04-13T09:21:22.845Z,15528.00
2023-04-13T09:22:22.802Z,15552.00
2023-04-13T09:23:22.811Z,15612.00
2023-04-13T09:24:22.778Z,16032.00
2023-04-13T09:25:22.776Z,16708.00
2023-04-13T09:26:22.781Z,17184.00
2023-04-13T09:27:22.783Z,17408.00
2023-04-13T09:28:22.743Z,17344.00
2023-04-13T09:29:22.742Z,16844.00
2023-04-13T09:30:22.732Z,16272.00
2023-04-13T09:31:22.744Z,15888.00
2023-04-13T09:32:22.965Z,15428.00
2023-04-13T09:33:22.726Z,14472.00
2023-04-13T09:34:22.675Z,13272.00
2023-04-13T09:35:22.668Z,12260.00
2023-04-13T09:36:22.860Z,11756.00
2023-04-13T09:37:22.795Z,11672.00
2023-04-13T09:38:22.634Z,11596.00
2023-04-13T09:39:22.657Z,11636.00
2023-04-13T09:40:22.619Z,11720.00
2023-04-13T09:41:22.606Z,11808.00
2023-04-13T09:42:22.601Z,11760.00
2023-04-13T09:43:22.610Z,11500.00
2023-04-13T09:44:22.572Z,11048.00
2023-04-13T09:45:22.589Z,10592.00
2023-04-13T09:46:22.563Z,10336.00
2023-04-13T09:47:22.694Z,10188.00
2023-04-13T09:48:22.737Z,10344.00
2023-04-13T09:49:22.520Z,10464.00
2023-04-13T09:50:22.510Z,10292.00
2023-04-13T09:51:22.515Z,10476.00
2023-04-13T09:52:22.486Z,11764.00
2023-04-13T09:53:22.485Z,12500.00
2023-04-13T09:54:22.464Z,12320.00
2023-04-13T09:55:22.464Z,12104.00
2023-04-13T09:56:22.444Z,10872.00
2023-04-13T09:57:22.512Z,9956.00
2023-04-13T09:58:24.321Z,9768.00
2023-04-13T09:59:22.413Z,10796.00
2023-04-13T10:00:22.469Z,12608.00
2023-04-13T10:01:22.490Z,13764.00
2023-04-13T10:02:22.615Z,14680.00
2023-04-13T10:03:22.607Z,15212.00
2023-04-13T10:04:22.383Z,15320.00
2023-04-13T10:05:22.392Z,15244.00
2023-04-13T10:06:22.336Z,15208.00
2023-04-13T10:07:22.358Z,15700.00
2023-04-13T10:08:34.537Z,16300.00
2023-04-13T10:09:23.328Z,17120.00
2023-04-13T10:10:22.300Z,18240.00
2023-04-13T10:11:22.290Z,18976.00
2023-04-13T10:12:22.272Z,19552.00
2023-04-13T10:13:24.103Z,20000.00
2023-04-13T10:14:22.247Z,20224.00
2023-04-13T10:15:22.353Z,20512.00
2023-04-13T10:16:22.300Z,20640.00
2023-04-13T10:17:22.355Z,20928.00
2023-04-13T10:18:22.372Z,21248.00
2023-04-13T10:19:22.208Z,21472.00
2023-04-13T10:20:22.226Z,21664.00
2023-04-13T10:21:22.198Z,21856.00
2023-04-13T10:22:22.168Z,21824.00
2023-04-13T10:23:22.159Z,21760.00
2023-04-13T10:24:22.142Z,21632.00
2023-04-13T10:25:33.128Z,21312.00
2023-04-13T10:26:23.119Z,20992.00
2023-04-13T10:27:22.331Z,20736.00
2023-04-13T10:28:22.931Z,20320.00
2023-04-13T10:29:22.086Z,19616.00
2023-04-13T10:30:22.095Z,19232.00
2023-04-13T10:31:22.131Z,19232.00
2023-04-13T10:32:22.108Z,19744.00
2023-04-13T10:33:22.075Z,20000.00
2023-04-13T10:34:22.032Z,20128.00
2023-04-13T10:35:22.024Z,20480.00
2023-04-13T10:36:22.041Z,20224.00
2023-04-13T10:37:22.042Z,19616.00
2023-04-13T10:38:21.996Z,19136.00
2023-04-13T10:39:21.995Z,18688.00
2023-04-13T10:40:21.985Z,18304.00
2023-04-13T10:41:21.959Z,18208.00
2023-04-13T10:42:21.947Z,18176.00
2023-04-13T10:43:21.937Z,17728.00
2023-04-13T10:44:21.923Z,17248.00
2023-04-13T10:45:21.960Z,17152.00
2023-04-13T10:46:21.953Z,16744.00
2023-04-13T10:47:21.973Z,16476.00
2023-04-13T10:48:21.914Z,16608.00
2023-04-13T10:49:21.873Z,17120.00
2023-04-13T10:50:21.857Z,16868.00
2023-04-13T10:51:21.883Z,16764.00
2023-04-13T10:52:21.864Z,16488.00
2023-04-13T10:53:21.835Z,16292.00
2023-04-13T10:54:21.816Z,16040.00
2023-04-13T10:55:21.811Z,15784.00
2023-04-13T10:56:21.794Z,15656.00
2023-04-13T10:57:21.972Z,16068.00
2023-04-13T10:58:21.774Z,16452.00
2023-04-13T10:59:21.775Z,16852.00
2023-04-13T11:00:25.543Z,17280.00
2023-04-13T11:01:22.766Z,17184.00
2023-04-13T11:02:21.826Z,16744.00
2023-04-13T11:03:21.859Z,16268.00
2023-04-13T11:04:21.869Z,16004.00
2023-04-13T11:05:21.713Z,16256.00
2023-04-13T11:06:21.700Z,16452.00
2023-04-13T11:07:21.684Z,16208.00
2023-04-13T11:08:21.935Z,15936.00
2023-04-13T11:09:21.696Z,15740.00
2023-04-13T11:10:21.649Z,15644.00
2023-04-13T11:11:21.647Z,15868.00
2023-04-13T11:12:21.641Z,15980.00
2023-04-13T11:13:21.628Z,15864.00
2023-04-13T11:14:21.616Z,15376.00
2023-04-13T11:15:21.629Z,14728.00
2023-04-13T11:16:21.659Z,14484.00
2023-04-13T11:17:21.873Z,14260.00
2023-04-13T11:18:21.566Z,14192.00
2023-04-13T11:19:21.556Z,14172.00
2023-04-13T11:20:21.564Z,14460.00
2023-04-13T11:21:21.557Z,14752.00
2023-04-13T11:22:21.536Z,15236.00
2023-04-13T11:23:21.516Z,15612.00
2023-04-13T11:24:21.524Z,15784.00
2023-04-13T11:25:21.502Z,16184.00
2023-04-13T11:26:21.480Z,16180.00
2023-04-13T11:27:21.505Z,15788.00
2023-04-13T11:28:21.471Z,15756.00
2023-04-13T11:29:21.596Z,15768.00
2023-04-13T11:30:21.437Z,15656.00
2023-04-13T11:31:21.458Z,15524.00
2023-04-13T11:32:21.587Z,15576.00
2023-04-13T11:33:21.434Z,15984.00
2023-04-13T11:34:21.408Z,16836.00
2023-04-13T11:35:21.389Z,17856.00
2023-04-13T11:36:21.374Z,18272.00
2023-04-13T11:37:21.368Z,18496.00
2023-04-13T11:38:21.365Z,18656.00
2023-04-13T11:39:21.363Z,19264.00
2023-04-13T11:40:21.522Z,19456.00
2023-04-13T11:41:21.324Z,19456.00
2023-04-13T11:42:21.326Z,19552.00
2023-04-13T11:43:21.302Z,19744.00
2023-04-13T11:44:21.292Z,19744.00
2023-04-13T11:45:21.965Z,19840.00
2023-04-13T11:46:21.331Z,19904.00
2023-04-13T11:47:21.306Z,19520.00
2023-04-13T11:48:21.262Z,19200.00
2023-04-13T11:49:21.247Z,19104.00
2023-04-13T11:50:21.223Z,18976.00
2023-04-13T11:51:21.251Z,18912.00
2023-04-13T11:52:21.221Z,19264.00
2023-04-13T11:53:21.192Z,19712.00
2023-04-13T11:54:21.182Z,19680.00
2023-04-13T11:55:23.746Z,19456.00
2023-04-13T11:56:21.199Z,19104.00
2023-04-13T11:57:21.209Z,19072.00
2023-04-13T11:58:21.168Z,18912.00
2023-04-13T11:59:21.131Z,19168.00
2023-04-13T12:00:21.121Z,19392.00
2023-04-13T12:01:26.129Z,19072.00
2023-04-13T12:02:23.368Z,18592.00
2023-04-13T12:04:21.249Z,18272.00
2023-04-13T12:05:21.223Z,17536.00
2023-04-13T12:06:21.208Z,16992.00
2023-04-13T12:07:21.841Z,16820.00
2023-04-13T12:08:21.335Z,16316.00
2023-04-13T12:09:23.277Z,15916.00
2023-04-13T12:10:24.796Z,15712.00
2023-04-13T12:14:38.013Z,15324.00
2023-04-13T12:15:38.712Z,15232.00
2023-04-13T12:16:35.981Z,15152.00
2023-04-13T12:18:26.052Z,14496.00
2023-04-13T12:20:21.084Z,14224.00
2023-04-13T12:21:21.056Z,14344.00
2023-04-13T12:22:20.941Z,14596.00
2023-04-13T12:23:22.893Z,14756.00
2023-04-13T12:24:20.914Z,14860.00
2023-04-13T12:25:20.938Z,14856.00
2023-04-13T12:26:59.402Z,14568.00
2023-04-13T12:27:21.930Z,14184.00
2023-04-13T12:28:20.845Z,13924.00